Time;durP1;ratioP1;P1;durP2;ratioP2;P2;SDS_P1;SDS_P2;PMS_P1;PMS_P2;Temp;Humidity;BMP_temperature;BMP_pressure;BME280_temperature;BME280_humidity;BME280_pressure;Samples;Min_cycle;Max_cycle;Signal;HPM_P1;HPM_P2
2024/02/08 00:01:49;;;;;;;;;;;;;;;6.35;58.22;99886.87;107579;1254;108834;-63
2024/02/08 00:04:17;;;;;;;;;;;;;;;6.20;58.05;99889.27;107552;1254;108515;-63
2024/02/08 00:06:45;;;;;;;;;;;;;;;6.10;58.00;99888.69;107609;1254;99172;-62
2024/02/08 00:09:14;;;;;;;;;;;;;;;6.02;58.38;99886.70;107597;1254;99274;-63
2024/02/08 00:11:42;;;;;;;;;;;;;;;5.94;58.36;99879.35;107540;1256;112884;-63
2024/02/08 00:14:10;;;;;;;;;;;;;;;5.86;58.33;99880.89;107570;1254;108465;-65
2024/02/08 00:16:38;;;;;;;;;;;;;;;5.77;58.48;99885.02;107587;1256;108740;-63
2024/02/08 00:19:06;;;;;;;;;;;;;;;5.66;58.78;99882.00;107580;1254;99180;-64
2024/02/08 00:21:37;;;;;;;;;;;;;;;5.60;59.09;99876.80;107602;1254;99164;-64
2024/02/08 00:24:05;;;;;;;;;;;;;;;5.53;59.27;99877.70;107543;1255;113243;-64
2024/02/08 00:26:34;;;;;;;;;;;;;;;5.47;59.38;99878.77;107612;1254;108482;-64
2024/02/08 00:29:02;;;;;;;;;;;;;;;5.42;59.44;99882.92;107561;1254;108312;-63
2024/02/08 00:31:31;;;;;;;;;;;;;;;5.35;59.50;99887.86;107543;1252;99188;-62
2024/02/08 00:33:59;;;;;;;;;;;;;;;5.27;59.54;99884.60;107553;1254;99055;-63
2024/02/08 00:36:27;;;;;;;;;;;;;;;5.18;59.78;99890.82;107694;1251;113092;-62
2024/02/08 00:38:55;;;;;;;;;;;;;;;5.14;59.92;99893.83;107461;1254;107700;-64
2024/02/08 00:41:24;;;;;;;;;;;;;;;5.10;60.16;99894.00;107585;1251;108378;-62
2024/02/08 00:43:53;;;;;;;;;;;;;;;5.06;59.94;99888.42;107554;1257;99272;-61
2024/02/08 00:46:21;;;;;;;;;;;;;;;5.02;60.16;99891.96;107583;1251;99175;-62
2024/02/08 00:48:50;;;;;;;;;;;;;;;4.95;60.28;99891.45;107573;1256;112426;-63
2024/02/08 00:51:20;;;;;;;;;;;;;;;4.89;60.42;99889.96;107602;1252;108923;-63
2024/02/08 00:53:48;;;;;;;;;;;;;;;4.83;60.81;99891.83;107522;1257;107611;-62
2024/02/08 00:56:16;;;;;;;;;;;;;;;4.80;60.82;99893.33;107620;1251;99243;-62
2024/02/08 00:58:47;;;;;;;;;;;;;;;4.76;60.95;99898.59;107591;1251;99182;-62
2024/02/08 01:01:17;;;;;;;;;;;;;;;4.72;61.13;99898.00;107572;1255;112526;-62
2024/02/08 01:03:46;;;;;;;;;;;;;;;4.69;61.61;99902.52;107519;1251;107904;-62
2024/02/08 01:06:14;;;;;;;;;;;;;;;4.65;61.74;99909.55;107555;1251;107809;-62
2024/02/08 01:08:42;;;;;;;;;;;;;;;4.64;61.52;99901.15;107555;1254;99215;-62
2024/02/08 01:11:11;;;;;;;;;;;;;;;4.64;61.64;99902.54;107637;1251;99074;-62
2024/02/08 01:13:39;;;;;;;;;;;;;;;4.63;61.91;99897.65;107560;1256;112079;-62
2024/02/08 01:16:11;;;;;;;;;;;;;;;4.62;62.19;99894.50;107599;1251;107192;-62
2024/02/08 01:18:41;;;;;;;;;;;;;;;4.62;62.20;99894.84;107573;1251;106392;-62
2024/02/08 01:21:10;;;;;;;;;;;;;;;4.62;62.20;99895.42;107604;1257;99172;-62
2024/02/08 01:23:39;;;;;;;;;;;;;;;4.60;62.06;99897.52;107595;1251;99069;-62
2024/02/08 01:26:08;;;;;;;;;;;;;;;4.57;62.04;99894.21;107619;1252;113303;-63
2024/02/08 01:28:37;;;;;;;;;;;;;;;4.56;62.38;99892.15;107600;1256;107728;-62
2024/02/08 01:31:05;;;;;;;;;;;;;;;4.58;62.62;99879.22;107540;1251;107556;-62
2024/02/08 01:33:36;;;;;;;;;;;;;;;4.60;62.98;99872.11;107531;1255;99187;-62
2024/02/08 01:36:05;;;;;;;;;;;;;;;4.62;63.11;99858.08;107561;1256;99336;-62
2024/02/08 01:38:33;;;;;;;;;;;;;;;4.64;63.12;99868.41;107535;1251;113583;-62
2024/02/08 01:41:01;;;;;;;;;;;;;;;4.74;63.33;99860.39;107561;1254;108916;-62
2024/02/08 01:43:33;;;;;;;;;;;;;;;4.78;63.27;99864.50;107606;1254;108617;-62
2024/02/08 01:46:02;;;;;;;;;;;;;;;4.75;63.36;99868.66;107477;1255;99198;-62
2024/02/08 01:48:31;;;;;;;;;;;;;;;4.76;63.46;99872.13;107549;1256;99175;-62
2024/02/08 01:51:01;;;;;;;;;;;;;;;4.78;63.63;99874.45;107535;1257;113056;-61
2024/02/08 01:53:31;;;;;;;;;;;;;;;4.82;63.77;99869.52;107504;1257;108455;-62
2024/02/08 01:56:02;;;;;;;;;;;;;;;4.87;64.56;99868.58;107506;1250;108602;-62
2024/02/08 01:58:30;;;;;;;;;;;;;;;5.15;65.94;99860.66;107510;1251;99077;-62
2024/02/08 02:01:06;;;;;;;;;;;;;;;5.60;65.89;99864.85;107503;1251;99221;-62
2024/02/08 02:03:35;;;;;;;;;;;;;;;5.93;65.45;99861.11;107530;1251;112679;-62
2024/02/08 02:06:08;;;;;;;;;;;;;;;6.07;64.56;99856.42;107618;1251;107014;-62
2024/02/08 02:08:36;;;;;;;;;;;;;;;6.12;64.08;99865.58;107599;1250;106600;-64
2024/02/08 02:11:19;;;;;;;;;;;;;;;6.11;63.71;99859.64;107561;1256;99182;-62
2024/02/08 02:13:48;;;;;;;;;;;;;;;6.05;63.74;99854.98;107552;1256;99188;-66
2024/02/08 02:16:16;;;;;;;;;;;;;;;6.09;64.12;99854.06;107553;1254;114199;-62
2024/02/08 02:18:45;;;;;;;;;;;;;;;6.13;63.93;99855.18;107615;1254;108321;-62
2024/02/08 02:21:17;;;;;;;;;;;;;;;6.18;63.87;99861.20;107602;1251;108239;-62
2024/02/08 02:23:45;;;;;;;;;;;;;;;6.16;63.57;99865.05;107557;1254;99185;-62
2024/02/08 02:26:14;;;;;;;;;;;;;;;6.14;63.44;99875.05;107600;1251;99053;-61
2024/02/08 02:28:43;;;;;;;;;;;;;;;6.12;63.36;99879.29;107627;1257;113129;-63
2024/02/08 02:31:13;;;;;;;;;;;;;;;6.08;63.33;99892.30;107519;1251;108478;-63
2024/02/08 02:33:42;;;;;;;;;;;;;;;6.01;63.24;99893.73;107589;1256;106941;-63
2024/02/08 02:36:14;;;;;;;;;;;;;;;5.99;63.60;99903.86;107578;1251;99191;-64
2024/02/08 02:38:46;;;;;;;;;;;;;;;5.97;63.67;99906.33;107649;1251;99310;-62
2024/02/08 02:41:15;;;;;;;;;;;;;;;5.98;63.77;99905.55;107631;1255;113254;-61
2024/02/08 02:43:44;;;;;;;;;;;;;;;6.01;63.69;99904.78;107645;1251;107350;-62
2024/02/08 02:46:13;;;;;;;;;;;;;;;6.02;63.73;99910.04;107639;1251;106431;-62
2024/02/08 02:48:41;;;;;;;;;;;;;;;5.98;63.77;99922.67;107555;1251;99262;-63
2024/02/08 02:51:11;;;;;;;;;;;;;;;5.88;63.84;99922.20;107605;1251;99200;-62
2024/02/08 02:53:40;;;;;;;;;;;;;;;5.81;64.25;99928.16;107614;1251;112073;-63
2024/02/08 02:56:09;;;;;;;;;;;;;;;5.72;64.20;99931.50;107598;1254;108224;-63
2024/02/08 02:58:37;;;;;;;;;;;;;;;5.71;64.39;99938.02;107687;1251;107064;-63
2024/02/08 03:01:06;;;;;;;;;;;;;;;5.75;64.79;99942.15;107609;1254;99109;-62
2024/02/08 03:03:37;;;;;;;;;;;;;;;5.82;65.06;99952.80;107591;1254;99060;-62
2024/02/08 03:06:13;;;;;;;;;;;;;;;5.94;66.02;99956.20;107608;1251;112503;-61
2024/02/08 03:08:44;;;;;;;;;;;;;;;6.16;66.00;99958.56;107548;1251;108337;-62
2024/02/08 03:11:13;;;;;;;;;;;;;;;6.31;65.84;99964.95;107548;1255;108334;-63
2024/02/08 03:13:43;;;;;;;;;;;;;;;6.43;65.67;99965.36;107581;1254;99204;-63
2024/02/08 03:16:14;;;;;;;;;;;;;;;6.51;65.46;99964.20;107612;1254;99275;-62
2024/02/08 03:18:43;;;;;;;;;;;;;;;6.55;65.52;99969.38;107610;1257;113446;-63
2024/02/08 03:21:21;;;;;;;;;;;;;;;6.57;65.74;99973.63;107602;1250;107222;-64
2024/02/08 03:23:51;;;;;;;;;;;;;;;6.58;65.87;99985.20;107558;1253;108004;-63
2024/02/08 03:26:19;;;;;;;;;;;;;;;6.55;66.05;99986.64;107596;1251;99735;-61
2024/02/08 03:28:51;;;;;;;;;;;;;;;6.50;65.85;99999.52;107599;1251;99122;-63
2024/02/08 03:31:20;;;;;;;;;;;;;;;6.45;65.83;100007.30;107647;1251;112354;-62
2024/02/08 03:33:50;;;;;;;;;;;;;;;6.39;66.38;100022.55;107610;1254;106660;-62
2024/02/08 03:36:18;;;;;;;;;;;;;;;6.34;66.41;100021.73;107512;1251;107865;-64
2024/02/08 03:38:52;;;;;;;;;;;;;;;6.32;66.97;100024.03;107539;1253;99349;-63
2024/02/08 03:41:20;;;;;;;;;;;;;;;6.27;67.30;100029.23;107556;1251;99070;-63
2024/02/08 03:43:50;;;;;;;;;;;;;;;6.22;67.85;100034.95;107589;1251;112841;-62
2024/02/08 03:46:20;;;;;;;;;;;;;;;6.16;68.37;100032.94;107591;1254;107802;-63
2024/02/08 03:48:49;;;;;;;;;;;;;;;6.08;68.08;100035.39;107591;1251;107887;-62
2024/02/08 03:51:19;;;;;;;;;;;;;;;6.02;67.72;100040.73;107634;1251;100412;-63
2024/02/08 03:53:47;;;;;;;;;;;;;;;5.97;67.97;100032.70;107570;1254;99268;-63
2024/02/08 03:56:15;;;;;;;;;;;;;;;5.92;67.69;100041.45;107569;1251;113268;-62
2024/02/08 03:58:46;;;;;;;;;;;;;;;5.88;67.92;100043.41;107602;1251;107947;-62
2024/02/08 04:01:16;;;;;;;;;;;;;;;5.83;68.71;100033.09;107607;1254;107765;-61
2024/02/08 04:03:53;;;;;;;;;;;;;;;5.78;68.84;100036.04;107577;1251;99198;-61
2024/02/08 04:09:33;;;;;;;;;;;;;;;5.70;68.30;100044.82;107176;1257;113231;-64
2024/02/08 04:53:55;;;;;;;;;;;;;;;5.65;67.71;100114.92;107602;1253;108528;-62
2024/02/08 04:56:24;;;;;;;;;;;;;;;5.67;67.46;100115.73;107576;1251;107152;-63
2024/02/08 04:58:52;;;;;;;;;;;;;;;5.66;67.58;100117.16;107488;1251;99307;-64
2024/02/08 05:01:26;;;;;;;;;;;;;;;5.64;67.32;100119.64;107486;1251;99070;-63
2024/02/08 05:03:57;;;;;;;;;;;;;;;5.61;67.16;100117.95;107483;1254;113062;-63
2024/02/08 05:06:26;;;;;;;;;;;;;;;5.54;66.89;100120.09;107570;1251;108652;-62
2024/02/08 05:08:59;;;;;;;;;;;;;;;5.47;66.71;100116.52;107516;1251;109105;-63
2024/02/08 05:11:36;;;;;;;;;;;;;;;5.39;66.65;100123.36;107613;1251;99233;-64
2024/02/08 05:14:05;;;;;;;;;;;;;;;5.29;66.58;100126.59;107533;1251;99195;-65
2024/02/08 05:16:36;;;;;;;;;;;;;;;5.22;66.71;100125.03;107553;1251;112686;-64
2024/02/08 05:19:05;;;;;;;;;;;;;;;5.15;66.48;100124.66;107585;1251;108639;-63
2024/02/08 05:21:37;;;;;;;;;;;;;;;5.07;66.50;100130.93;107532;1251;107760;-64
2024/02/08 05:24:06;;;;;;;;;;;;;;;4.99;66.83;100140.58;107643;1254;99220;-63
2024/02/08 05:26:35;;;;;;;;;;;;;;;4.87;66.92;100141.72;107537;1252;99198;-63
2024/02/08 05:29:03;;;;;;;;;;;;;;;4.77;66.85;100138.50;107627;1251;112373;-62
2024/02/08 05:31:34;;;;;;;;;;;;;;;4.74;67.01;100147.66;107582;1251;108550;-62
2024/02/08 05:34:07;;;;;;;;;;;;;;;4.68;67.09;100158.54;107463;1251;107332;-62
2024/02/08 05:36:46;;;;;;;;;;;;;;;4.63;67.17;100154.98;107660;1251;99159;-62
2024/02/08 05:39:24;;;;;;;;;;;;;;;4.61;67.29;100157.83;107640;1251;99169;-62
2024/02/08 05:41:55;;;;;;;;;;;;;;;4.60;67.40;100161.98;107521;1254;113069;-62
2024/02/08 05:44:29;;;;;;;;;;;;;;;4.58;67.47;100165.64;107672;1254;107582;-62
2024/02/08 05:47:07;;;;;;;;;;;;;;;4.56;67.83;100162.79;107612;1254;107871;-62
2024/02/08 05:49:48;;;;;;;;;;;;;;;4.51;68.02;100171.85;107521;1251;99208;-62
2024/02/08 05:52:18;;;;;;;;;;;;;;;4.41;68.09;100183.38;107490;1251;99211;-62
2024/02/08 05:54:52;;;;;;;;;;;;;;;4.39;68.03;100184.59;107536;1254;112852;-63
2024/02/08 05:57:21;;;;;;;;;;;;;;;4.41;67.97;100196.92;107523;1252;107293;-63
2024/02/08 05:59:54;;;;;;;;;;;;;;;4.40;67.96;100197.34;107565;1257;108523;-63
2024/02/08 06:02:22;;;;;;;;;;;;;;;4.41;68.02;100205.08;107440;1252;99051;-63
2024/02/08 06:04:59;;;;;;;;;;;;;;;4.41;68.22;100212.18;107552;1254;99195;-62
2024/02/08 06:07:34;;;;;;;;;;;;;;;4.39;68.12;100212.86;107450;1251;111902;-62
2024/02/08 06:10:13;;;;;;;;;;;;;;;4.37;68.29;100213.86;107445;1251;108211;-63
2024/02/08 06:12:43;;;;;;;;;;;;;;;4.32;68.12;100211.04;107520;1254;107956;-63
2024/02/08 06:15:33;;;;;;;;;;;;;;;4.28;68.12;100211.14;107514;1251;99350;-62
2024/02/08 06:18:05;;;;;;;;;;;;;;;4.26;68.34;100215.01;107519;1251;99262;-62
2024/02/08 06:20:35;;;;;;;;;;;;;;;4.25;68.39;100218.27;107540;1250;113318;-63
2024/02/08 06:23:16;;;;;;;;;;;;;;;4.26;68.45;100222.09;107506;1251;107124;-62
2024/02/08 06:26:27;;;;;;;;;;;;;;;4.27;68.65;100224.31;107432;1251;108839;-62
2024/02/08 06:28:46;;;;;;;;;;;;;;;4.26;68.78;100229.72;107448;1251;99194;-63
2024/02/08 06:31:18;;;;;;;;;;;;;;;4.26;68.72;100241.47;107353;1254;99200;-62
2024/02/08 06:36:40;;;;;;;;;;;;;;;4.26;68.94;100252.47;107447;1251;107330;-63
2024/02/08 06:39:23;;;;;;;;;;;;;;;4.27;68.94;100242.30;107536;1251;107257;-65
2024/02/08 06:42:23;;;;;;;;;;;;;;;4.29;68.88;100231.16;107414;1251;99186;-64
2024/02/08 06:45:24;;;;;;;;;;;;;;;4.33;69.12;100228.35;107486;1251;99194;-64
2024/02/08 07:38:48;;;;;;;;;;;;;;;5.02;70.12;100298.07;107555;1251;99230;-64
2024/02/08 07:41:07;;;;;;;;;;;;;;;5.06;70.39;100292.06;107587;1254;99093;-63
2024/02/08 07:43:35;;;;;;;;;;;;;;;5.07;70.40;100287.38;107637;1251;113269;-63
2024/02/08 07:46:10;;;;;;;;;;;;;;;5.11;70.36;100284.08;107537;1251;108283;-63
2024/02/08 07:48:39;;;;;;;;;;;;;;;5.18;70.37;100269.88;107580;1251;108926;-65
2024/02/08 07:51:09;;;;;;;;;;;;;;;5.26;70.51;100267.64;107518;1251;99172;-62
2024/02/08 07:53:53;;;;;;;;;;;;;;;5.35;70.51;100286.41;107588;1251;99169;-63
2024/02/08 07:59:26;;;;;;;;;;;;;;;5.52;70.21;100297.79;107493;1251;108189;-62
2024/02/08 08:01:57;;;;;;;;;;;;;;;5.59;70.37;100300.77;107507;1254;107896;-62
2024/02/08 08:04:51;;;;;;;;;;;;;;;5.66;70.20;100310.74;107532;1254;99164;-62
2024/02/08 08:07:25;;;;;;;;;;;;;;;5.68;70.05;100298.67;107556;1251;99185;-62
2024/02/08 08:10:03;;;;;;;;;;;;;;;5.71;69.97;100296.69;107651;1251;111832;-62
2024/02/08 08:12:31;;;;;;;;;;;;;;;5.80;70.01;100299.95;107553;1251;109081;-63
2024/02/08 08:17:31;;;;;;;;;;;;;;;5.87;69.70;100309.90;107604;1254;99172;-63
2024/02/08 08:20:56;;;;;;;;;;;;;;;5.89;69.53;100315.94;107654;1251;99169;-62
2024/02/08 08:22:58;;;;;;;;;;;;;;;5.97;69.68;100319.98;107414;1251;112494;-60
2024/02/08 08:25:44;;;;;;;;;;;;;;;6.05;69.60;100320.33;107475;1251;107669;-60
2024/02/08 08:31:13;;;;;;;;;;;;;;;6.16;69.40;100327.96;107529;1254;99285;-61
2024/02/08 08:34:00;;;;;;;;;;;;;;;6.19;69.20;100322.77;107551;1254;99066;-62
2024/02/08 08:36:29;;;;;;;;;;;;;;;6.21;69.14;100320.81;107446;1254;112794;-60
2024/02/08 08:41:47;;;;;;;;;;;;;;;6.26;68.81;100320.29;107472;1257;107016;-61
2024/02/08 08:44:19;;;;;;;;;;;;;;;6.29;68.82;100325.60;107635;1254;99942;-60
2024/02/08 08:46:47;;;;;;;;;;;;;;;6.34;68.76;100339.48;107017;1253;795371;-61
2024/02/08 08:49:20;;;;;;;;;;;;;;;6.35;68.52;100340.29;107615;1255;113213;-60
2024/02/08 08:51:58;;;;;;;;;;;;;;;6.36;68.73;100338.73;107671;1254;108323;-61
2024/02/08 08:54:29;;;;;;;;;;;;;;;6.41;68.51;100335.51;107585;1254;107435;-60
2024/02/08 08:56:57;;;;;;;;;;;;;;;6.47;68.45;100341.66;107626;1253;99182;-60
2024/02/08 08:59:26;;;;;;;;;;;;;;;6.52;68.45;100334.98;107598;1253;99188;-60
2024/02/08 09:02:00;;;;;;;;;;;;;;;6.55;68.03;100318.77;107671;1252;113091;-61
2024/02/08 09:04:36;;;;;;;;;;;;;;;6.59;68.01;100314.20;107564;1254;107554;-61
2024/02/08 09:07:10;;;;;;;;;;;;;;;6.66;68.05;100331.66;107566;1254;106337;-61
2024/02/08 09:12:28;;;;;;;;;;;;;;;6.78;67.66;100345.64;107575;1252;97613;-60
2024/02/08 09:15:00;;;;;;;;;;;;;;;6.83;67.49;100344.52;107710;1254;113291;-60
2024/02/08 09:18:15;;;;;;;;;;;;;;;6.86;67.32;100346.39;107605;1256;107673;-61
2024/02/08 09:20:23;;;;;;;;;;;;;;;6.88;66.80;100341.41;107352;1250;107823;-62
2024/02/08 09:22:52;;;;;;;;;;;;;;;6.91;66.79;100339.11;107460;1251;99178;-62
2024/02/08 09:25:24;;;;;;;;;;;;;;;6.88;66.59;100345.53;107501;1254;99214;-62
2024/02/08 09:28:23;;;;;;;;;;;;;;;6.90;66.73;100341.10;107540;1251;112781;-61
2024/02/08 09:30:56;;;;;;;;;;;;;;;6.91;66.41;100349.63;107532;1253;108075;-60
2024/02/08 09:33:30;;;;;;;;;;;;;;;6.92;66.54;100345.79;107608;1251;108276;-62
2024/02/08 09:35:59;;;;;;;;;;;;;;;6.92;66.24;100340.79;107495;1251;99192;-62
2024/02/08 09:38:28;;;;;;;;;;;;;;;6.95;66.32;100344.52;107428;1250;99187;-62
2024/02/08 09:41:01;;;;;;;;;;;;;;;6.97;66.31;100344.86;107470;1253;112278;-62
2024/02/08 09:43:29;;;;;;;;;;;;;;;7.01;66.16;100347.77;107515;1250;107405;-62
2024/02/08 09:46:16;;;;;;;;;;;;;;;7.01;65.94;100337.36;107409;1250;108268;-62
2024/02/08 09:48:47;;;;;;;;;;;;;;;7.00;65.39;100336.95;107449;1251;99189;-62
2024/02/08 09:51:25;;;;;;;;;;;;;;;7.02;65.26;100339.09;107485;1254;99295;-62
2024/02/08 09:53:54;;;;;;;;;;;;;;;7.04;64.67;100340.86;107611;1251;112824;-62
2024/02/08 09:56:28;;;;;;;;;;;;;;;7.06;64.64;100338.26;107649;1251;108725;-63
2024/02/08 09:59:07;;;;;;;;;;;;;;;7.10;64.68;100337.40;107525;1251;108380;-63
2024/02/08 10:01:43;;;;;;;;;;;;;;;7.14;64.67;100337.27;107536;1251;99182;-63
2024/02/08 10:04:16;;;;;;;;;;;;;;;7.13;64.33;100343.17;107555;1251;99067;-62
2024/02/08 10:07:15;;;;;;;;;;;;;;;7.13;63.87;100338.75;107613;1251;111811;-61
2024/02/08 10:09:40;;;;;;;;;;;;;;;7.17;63.93;100343.58;107583;1251;107437;-60
2024/02/08 10:12:18;;;;;;;;;;;;;;;7.26;63.96;100340.75;107504;1250;108407;-61
2024/02/08 10:14:54;;;;;;;;;;;;;;;7.40;64.10;100340.17;107538;1251;99173;-60
2024/02/08 10:17:28;;;;;;;;;;;;;;;7.53;63.88;100337.64;107530;1254;99224;-61
2024/02/08 10:22:56;;;;;;;;;;;;;;;7.71;61.74;100335.11;107489;1251;107578;-60
2024/02/08 10:28:21;;;;;;;;;;;;;;;7.81;61.46;100335.86;107561;1250;99197;-63
2024/02/08 10:30:59;;;;;;;;;;;;;;;7.85;60.70;100340.90;107539;1251;99243;-62
2024/02/08 10:33:35;;;;;;;;;;;;;;;7.90;61.00;100343.02;107624;1251;113185;-61
2024/02/08 10:36:15;;;;;;;;;;;;;;;7.93;59.85;100341.48;107559;1251;108029;-61
2024/02/08 10:38:56;;;;;;;;;;;;;;;7.90;59.35;100334.57;107501;1251;107601;-61
2024/02/08 10:41:57;;;;;;;;;;;;;;;7.85;59.58;100330.70;107521;1251;99327;-60
2024/02/08 10:44:29;;;;;;;;;;;;;;;7.81;59.61;100325.83;107520;1251;99285;-60
2024/02/08 10:47:06;;;;;;;;;;;;;;;7.76;59.69;100327.33;107579;1251;111921;-61
2024/02/08 10:49:42;;;;;;;;;;;;;;;7.75;60.04;100322.21;107556;1251;107793;-61
2024/02/08 10:52:12;;;;;;;;;;;;;;;7.77;60.34;100318.71;107542;1251;107703;-69
2024/02/08 10:54:48;;;;;;;;;;;;;;;7.77;59.45;100318.84;107522;1251;99172;-63
2024/02/08 10:57:39;;;;;;;;;;;;;;;7.71;59.69;100320.10;107610;1251;99179;-63
2024/02/08 11:03:08;;;;;;;;;;;;;;;7.71;60.45;100319.56;107579;1251;107974;-63
2024/02/08 11:06:00;;;;;;;;;;;;;;;7.73;60.63;100319.77;107569;1250;108746;-62
2024/02/08 11:08:36;;;;;;;;;;;;;;;7.76;60.57;100324.85;107673;1250;99163;-62
2024/02/08 11:11:12;;;;;;;;;;;;;;;7.72;60.51;100324.98;107609;1252;99326;-62
2024/02/08 11:13:43;;;;;;;;;;;;;;;7.66;60.54;100324.63;107629;1252;113834;-62
2024/02/08 11:16:22;;;;;;;;;;;;;;;7.60;60.81;100323.30;107601;1251;108791;-62
2024/02/08 11:18:54;;;;;;;;;;;;;;;7.54;61.01;100320.79;107698;1256;108134;-63
2024/02/08 11:21:42;;;;;;;;;;;;;;;7.54;61.12;100319.35;107659;1250;99176;-62
2024/02/08 11:24:27;;;;;;;;;;;;;;;7.52;60.97;100310.77;107627;1251;99165;-62
2024/02/08 11:27:01;;;;;;;;;;;;;;;7.48;60.98;100307.72;107639;1250;113236;-61
2024/02/08 11:29:45;;;;;;;;;;;;;;;7.43;60.87;100304.73;107562;1250;107506;-62
2024/02/08 11:32:18;;;;;;;;;;;;;;;7.41;61.19;100300.08;107603;1254;108583;-62
2024/02/08 11:34:47;;;;;;;;;;;;;;;7.41;61.11;100296.17;107612;1251;99169;-65
2024/02/08 11:37:17;;;;;;;;;;;;;;;7.38;61.00;100294.81;107657;1251;99164;-63
2024/02/08 11:39:58;;;;;;;;;;;;;;;7.32;61.14;100292.48;107603;1251;113394;-61
2024/02/08 11:42:31;;;;;;;;;;;;;;;7.26;60.96;100288.11;107647;1250;107880;-62
2024/02/08 11:45:00;;;;;;;;;;;;;;;7.17;61.27;100284.59;107566;1251;107679;-64
2024/02/08 11:47:35;;;;;;;;;;;;;;;7.12;61.52;100283.34;107610;1251;99188;-63
2024/02/08 11:50:05;;;;;;;;;;;;;;;7.08;61.60;100277.61;107694;1250;99181;-61
2024/02/08 11:52:35;;;;;;;;;;;;;;;7.10;61.60;100277.15;107585;1254;111918;-60
2024/02/08 11:55:12;;;;;;;;;;;;;;;7.11;61.41;100272.39;107484;1250;108088;-61
2024/02/08 11:57:41;;;;;;;;;;;;;;;7.11;60.69;100276.85;107532;1251;108143;-60
2024/02/08 12:00:17;;;;;;;;;;;;;;;7.09;59.43;100281.88;107568;1251;99194;-61
2024/02/08 12:02:47;;;;;;;;;;;;;;;7.01;58.76;100281.38;107562;1251;99095;-58
2024/02/08 12:05:17;;;;;;;;;;;;;;;6.95;58.79;100280.46;107541;1251;113635;-59
2024/02/08 12:07:46;;;;;;;;;;;;;;;6.92;58.75;100272.54;107655;1254;108057;-62
2024/02/08 12:10:21;;;;;;;;;;;;;;;6.93;59.14;100273.91;107535;1250;107234;-62
2024/02/08 12:12:53;;;;;;;;;;;;;;;6.94;58.54;100268.83;107569;1251;99191;-64
2024/02/08 12:15:21;;;;;;;;;;;;;;;6.92;58.61;100269.67;107484;1250;99179;-62
2024/02/08 12:17:52;;;;;;;;;;;;;;;6.93;58.88;100273.85;107580;1251;113464;-61
2024/02/08 12:20:23;;;;;;;;;;;;;;;6.97;58.83;100276.95;107534;1250;109180;-62
2024/02/08 12:22:53;;;;;;;;;;;;;;;7.00;58.90;100279.18;107488;1251;108374;-66
2024/02/08 12:25:21;;;;;;;;;;;;;;;7.06;58.90;100279.90;107536;1254;99852;-64
2024/02/08 12:27:52;;;;;;;;;;;;;;;7.13;58.94;100276.73;107565;1251;99310;-64
2024/02/08 12:30:33;;;;;;;;;;;;;;;7.18;59.14;100276.41;107539;1251;112740;-64
2024/02/08 12:33:07;;;;;;;;;;;;;;;7.26;58.99;100274.02;107457;1254;108553;-64
2024/02/08 12:35:40;;;;;;;;;;;;;;;7.34;59.23;100269.81;107482;1250;107735;-65
2024/02/08 12:38:11;;;;;;;;;;;;;;;7.40;59.17;100268.82;107569;1255;99261;-64
2024/02/08 12:40:42;;;;;;;;;;;;;;;7.40;59.04;100264.38;107510;1251;99066;-64
2024/02/08 12:43:13;;;;;;;;;;;;;;;7.40;59.04;100262.73;107509;1254;113392;-67
2024/02/08 12:45:42;;;;;;;;;;;;;;;7.44;59.22;100262.52;107481;1251;108446;-63
2024/02/08 12:48:15;;;;;;;;;;;;;;;7.46;58.47;100263.08;107512;1251;108153;-65
2024/02/08 12:50:43;;;;;;;;;;;;;;;7.38;58.58;100272.14;107513;1250;99194;-64
2024/02/08 12:53:13;;;;;;;;;;;;;;;7.32;58.71;100270.70;107493;1251;99213;-63
2024/02/08 12:55:41;;;;;;;;;;;;;;;7.31;58.98;100268.48;107441;1251;113098;-64
2024/02/08 12:58:13;;;;;;;;;;;;;;;7.33;59.30;100267.22;107463;1251;108072;-64
2024/02/08 13:00:45;;;;;;;;;;;;;;;7.32;59.22;100259.76;107496;1251;108197;-66
2024/02/08 13:03:15;;;;;;;;;;;;;;;7.32;59.41;100260.52;107473;1251;99063;-65
2024/02/08 13:05:45;;;;;;;;;;;;;;;7.32;59.59;100253.16;107464;1251;99185;-65
2024/02/08 13:08:18;;;;;;;;;;;;;;;7.34;59.61;100260.16;107561;1251;112684;-63
2024/02/08 13:10:56;;;;;;;;;;;;;;;7.35;59.55;100259.55;107521;1252;108802;-65
2024/02/08 13:13:24;;;;;;;;;;;;;;;7.38;59.54;100259.52;107447;1251;107601;-65
2024/02/08 13:16:04;;;;;;;;;;;;;;;7.39;59.37;100260.98;107432;1252;99279;-66
2024/02/08 13:18:32;;;;;;;;;;;;;;;7.33;59.03;100253.45;107472;1254;99194;-63
2024/02/08 13:21:03;;;;;;;;;;;;;;;7.28;59.19;100252.79;107499;1251;114476;-64
2024/02/08 13:23:34;;;;;;;;;;;;;;;7.25;59.37;100250.90;107514;1251;107534;-65
2024/02/08 13:26:06;;;;;;;;;;;;;;;7.23;59.49;100252.66;107450;1251;108062;-66
2024/02/08 13:28:42;;;;;;;;;;;;;;;7.26;59.83;100250.34;107441;1250;99161;-67
2024/02/08 13:31:11;;;;;;;;;;;;;;;7.28;59.83;100251.21;107453;1251;99285;-66
2024/02/08 13:33:39;;;;;;;;;;;;;;;7.30;59.70;100248.39;107438;1251;114050;-67
2024/02/08 13:36:08;;;;;;;;;;;;;;;7.28;59.71;100248.70;107471;1251;107896;-65
2024/02/08 13:38:40;;;;;;;;;;;;;;;7.32;59.78;100248.19;107428;1251;108509;-63
2024/02/08 13:41:10;;;;;;;;;;;;;;;7.35;59.73;100244.74;107488;1251;99679;-63
2024/02/08 13:43:40;;;;;;;;;;;;;;;7.42;59.64;100244.36;107496;1251;99201;-63
2024/02/08 13:46:10;;;;;;;;;;;;;;;7.44;59.33;100240.91;107480;1251;113256;-63
2024/02/08 13:48:39;;;;;;;;;;;;;;;7.50;59.49;100237.98;107545;1251;108389;-64
2024/02/08 13:51:07;;;;;;;;;;;;;;;7.55;59.49;100244.02;107510;1251;107885;-65
2024/02/08 13:53:36;;;;;;;;;;;;;;;7.55;59.11;100253.25;107527;1250;99272;-65
2024/02/08 13:56:08;;;;;;;;;;;;;;;7.55;59.23;100250.23;107449;1252;99078;-67
2024/02/08 13:58:36;;;;;;;;;;;;;;;7.56;59.18;100241.93;107602;1251;112501;-66
2024/02/08 14:01:05;;;;;;;;;;;;;;;7.55;58.96;100240.63;107503;1253;108479;-65
2024/02/08 14:03:34;;;;;;;;;;;;;;;7.51;58.89;100241.98;107467;1251;108312;-63
2024/02/08 14:06:08;;;;;;;;;;;;;;;7.46;59.06;100243.27;107462;1255;99341;-64
2024/02/08 14:08:46;;;;;;;;;;;;;;;7.46;59.17;100246.30;107446;1251;99190;-65
2024/02/08 14:11:19;;;;;;;;;;;;;;;7.48;59.30;100248.60;107469;1251;112320;-65
2024/02/08 14:13:50;;;;;;;;;;;;;;;7.50;59.21;100247.64;107447;1254;108181;-64
2024/02/08 14:16:21;;;;;;;;;;;;;;;7.49;59.31;100250.20;107426;1251;107983;-63
2024/02/08 14:18:51;;;;;;;;;;;;;;;7.49;59.13;100248.56;107485;1251;99060;-64
2024/02/08 14:21:24;;;;;;;;;;;;;;;7.48;59.37;100254.53;107597;1251;99188;-64
2024/02/08 14:24:01;;;;;;;;;;;;;;;7.51;59.40;100256.64;107486;1251;113172;-64
2024/02/08 14:26:37;;;;;;;;;;;;;;;7.50;59.33;100252.23;107494;1251;108407;-64
2024/02/08 14:29:07;;;;;;;;;;;;;;;7.45;59.36;100250.73;107448;1251;108741;-65
2024/02/08 14:31:36;;;;;;;;;;;;;;;7.35;59.30;100246.14;107475;1251;99160;-67
2024/02/08 14:34:08;;;;;;;;;;;;;;;7.32;59.54;100253.17;107540;1254;99287;-66
2024/02/08 14:36:42;;;;;;;;;;;;;;;7.30;59.76;100253.50;107528;1250;113159;-66
2024/02/08 14:39:27;;;;;;;;;;;;;;;7.28;59.79;100255.33;107525;1250;108645;-65
2024/02/08 14:41:59;;;;;;;;;;;;;;;7.25;59.84;100249.52;107468;1254;108290;-66
2024/02/08 14:44:41;;;;;;;;;;;;;;;7.22;60.01;100255.87;107567;1253;99353;-67
2024/02/08 14:47:21;;;;;;;;;;;;;;;7.18;60.06;100261.48;107484;1251;99256;-65
2024/02/08 14:50:00;;;;;;;;;;;;;;;7.15;60.09;100264.39;107517;1250;112520;-64
2024/02/08 14:52:43;;;;;;;;;;;;;;;7.12;60.12;100253.98;107491;1251;107721;-64
2024/02/08 14:55:22;;;;;;;;;;;;;;;7.07;60.28;100251.89;107575;1251;108711;-66
2024/02/08 14:57:58;;;;;;;;;;;;;;;7.04;60.52;100247.42;107492;1254;99263;-65
2024/02/08 15:03:07;;;;;;;;;;;;;;;6.97;60.44;100248.07;107535;1251;113522;-63
2024/02/08 15:05:47;;;;;;;;;;;;;;;6.91;60.68;100244.96;107544;1250;107229;-63